Time;durP1;ratioP1;P1;durP2;ratioP2;P2;SDS_P1;SDS_P2;PMS_P1;PMS_P2;Temp;Humidity;BMP_temperature;BMP_pressure;BME280_temperature;BME280_humidity;BME280_pressure;Samples;Min_cycle;Max_cycle;Signal;HPM_P1;HPM_P2
2021/12/12 00:01:16;;;;;;;33.83;13.95;;;11.70;89.70;;;;;;4977216;28;20038;-73
2021/12/12 00:03:50;;;;;;;33.15;12.77;;;11.70;89.60;;;;;;4975587;28;20126;-73
2021/12/12 00:06:31;;;;;;;28.45;13.43;;;11.80;89.80;;;;;;4975558;28;20496;-72
2021/12/12 00:09:05;;;;;;;26.70;13.48;;;11.70;89.60;;;;;;4975595;28;20031;-73
2021/12/12 00:11:32;;;;;;;29.15;13.73;;;11.70;90.00;;;;;;4975290;28;20025;-73
2021/12/12 00:14:04;;;;;;;34.13;13.35;;;11.70;89.80;;;;;;4975281;28;20034;-73
2021/12/12 00:16:30;;;;;;;33.00;13.15;;;11.70;89.70;;;;;;4974406;28;20027;-73
2021/12/12 00:18:57;;;;;;;27.02;12.63;;;11.70;89.70;;;;;;4975959;28;20095;-73
2021/12/12 00:21:25;;;;;;;26.90;12.45;;;11.70;89.70;;;;;;4975546;28;20744;-73
2021/12/12 00:23:52;;;;;;;29.70;11.65;;;11.70;89.70;;;;;;4975448;28;20027;-73
2021/12/12 00:26:17;;;;;;;29.45;12.02;;;11.70;89.60;;;;;;4975123;28;20049;-73
2021/12/12 00:28:44;;;;;;;30.50;11.82;;;11.80;89.70;;;;;;4976466;28;20039;-72
2021/12/12 00:31:15;;;;;;;24.25;10.20;;;11.80;89.70;;;;;;4986906;28;20022;-73
2021/12/12 00:33:46;;;;;;;27.48;10.00;;;11.80;89.50;;;;;;4979708;28;20019;-73
2021/12/12 00:36:16;;;;;;;27.92;10.40;;;11.80;89.60;;;;;;4998246;28;20081;-72
2021/12/12 00:38:43;;;;;;;24.20;10.98;;;11.80;89.60;;;;;;4997704;28;20074;-73
2021/12/12 00:41:12;;;;;;;30.90;11.57;;;11.80;89.70;;;;;;4993122;28;20049;-73
2021/12/12 00:43:47;;;;;;;32.28;10.55;;;11.80;89.80;;;;;;4994141;28;20097;-73
2021/12/12 00:46:14;;;;;;;24.33;9.75;;;11.80;89.70;;;;;;4977197;28;20022;-73
2021/12/12 00:48:43;;;;;;;23.08;10.23;;;11.80;89.60;;;;;;4979163;28;20513;-72
2021/12/12 00:51:11;;;;;;;32.90;9.73;;;11.80;89.40;;;;;;4997876;28;20022;-73
2021/12/12 00:53:39;;;;;;;24.40;9.88;;;11.90;89.50;;;;;;4998746;28;20026;-73
2021/12/12 00:56:05;;;;;;;31.15;10.85;;;11.80;89.50;;;;;;4996633;28;20023;-73
2021/12/12 00:58:32;;;;;;;26.77;9.35;;;11.80;89.70;;;;;;4979564;28;20062;-73
2021/12/12 01:01:05;;;;;;;24.10;9.48;;;11.80;89.60;;;;;;4985166;28;20033;-72
2021/12/12 01:03:56;;;;;;;21.48;9.32;;;11.80;89.90;;;;;;4998550;28;20064;-72
2021/12/12 01:06:23;;;;;;;23.90;10.15;;;11.80;90.00;;;;;;4992989;28;20030;-73
2021/12/12 01:08:50;;;;;;;25.80;9.93;;;11.80;89.90;;;;;;4978801;28;20481;-72
2021/12/12 01:11:22;;;;;;;26.05;9.65;;;11.80;90.10;;;;;;4978328;28;20042;-73
2021/12/12 01:13:48;;;;;;;23.85;9.27;;;11.80;90.00;;;;;;4989303;28;20477;-73
2021/12/12 01:16:22;;;;;;;22.83;10.85;;;11.80;90.20;;;;;;4978715;28;20035;-73
2021/12/12 01:18:56;;;;;;;23.10;9.13;;;11.80;90.20;;;;;;4978847;28;20492;-72
2021/12/12 01:21:30;;;;;;;20.83;8.98;;;11.80;90.10;;;;;;4978788;28;20026;-73
2021/12/12 01:24:02;;;;;;;24.17;9.75;;;11.80;89.90;;;;;;4978113;28;20073;-73
2021/12/12 01:26:29;;;;;;;19.65;10.10;;;11.80;90.20;;;;;;4978480;28;20060;-73
2021/12/12 01:28:57;;;;;;;24.60;8.80;;;11.80;90.20;;;;;;4978451;28;20039;-71
2021/12/12 01:31:29;;;;;;;21.05;8.52;;;11.80;90.10;;;;;;4978297;28;20182;-72
2021/12/12 01:33:59;;;;;;;24.08;9.57;;;11.80;89.90;;;;;;4979140;28;20082;-73
2021/12/12 01:36:41;;;;;;;;;;;11.80;89.90;;;;;;4990952;28;20078;-73
2021/12/12 01:39:06;;;;;;;15.88;7.50;;;11.80;90.00;;;;;;4978380;28;19912;-73
2021/12/12 01:41:46;;;;;;;19.33;8.38;;;11.80;89.90;;;;;;4977501;28;20118;-73
2021/12/12 01:44:22;;;;;;;20.88;8.75;;;11.80;89.90;;;;;;4978497;28;20555;-73
2021/12/12 01:46:57;;;;;;;19.33;8.95;;;11.80;89.80;;;;;;4977989;28;20397;-73
2021/12/12 01:49:25;;;;;;;22.23;8.80;;;11.90;89.80;;;;;;4993997;28;20746;-72
2021/12/12 01:51:53;;;;;;;19.35;8.30;;;11.80;89.90;;;;;;4997903;28;20030;-73
2021/12/12 01:54:25;;;;;;;21.58;9.10;;;11.90;89.70;;;;;;4997348;28;20034;-73
2021/12/12 01:56:58;;;;;;;20.35;8.45;;;11.80;89.90;;;;;;4997440;28;20029;-73
2021/12/12 01:59:34;;;;;;;17.58;7.38;;;11.90;89.90;;;;;;4978053;28;20483;-73
2021/12/12 02:02:02;;;;;;;15.20;6.68;;;11.90;89.90;;;;;;4977618;28;20130;-73
2021/12/12 02:04:34;;;;;;;19.27;8.32;;;11.90;89.70;;;;;;4976438;28;20023;-72
2021/12/12 02:07:01;;;;;;;15.32;7.35;;;11.90;89.70;;;;;;4977570;28;20266;-74
2021/12/12 02:09:28;;;;;;;15.88;7.50;;;12.00;89.60;;;;;;4977647;28;20023;-74
2021/12/12 02:11:57;;;;;;;20.27;7.13;;;11.90;89.50;;;;;;4992450;28;20089;-74
2021/12/12 02:14:26;;;;;;;13.80;7.03;;;11.90;89.50;;;;;;4977454;28;20118;-74
2021/12/12 02:17:00;;;;;;;17.40;7.90;;;11.90;89.40;;;;;;4977309;28;20027;-74
2021/12/12 02:19:39;;;;;;;17.40;6.78;;;12.00;89.30;;;;;;4977649;28;20023;-74
2021/12/12 02:36:01;;;;;;;13.93;6.47;;;12.00;89.20;;;;;;4994862;28;20085;-74
2021/12/12 02:38:31;;;;;;;20.30;7.80;;;11.90;89.00;;;;;;4985120;28;20038;-74
2021/12/12 02:41:00;;;;;;;;;;;11.90;89.10;;;;;;4977643;28;20030;-74
2021/12/12 02:43:30;;;;;;;17.13;7.57;;;11.90;89.20;;;;;;4977316;28;19906;-73
2021/12/12 02:45:57;;;;;;;17.13;8.73;;;12.00;89.30;;;;;;4975530;28;20054;-73
2021/12/12 02:48:32;;;;;;;19.45;8.23;;;12.00;89.20;;;;;;4977137;28;20031;-74
2021/12/12 02:51:03;;;;;;;16.15;7.55;;;12.00;89.20;;;;;;4976480;28;20026;-74
2021/12/12 02:53:52;;;;;;;15.40;7.88;;;12.00;89.30;;;;;;4975684;28;20209;-74
2021/12/12 02:56:26;;;;;;;17.05;8.45;;;11.90;89.30;;;;;;4976688;28;20031;-74
2021/12/12 02:58:53;;;;;;;22.42;8.15;;;11.90;89.30;;;;;;4976508;28;20038;-74
2021/12/12 03:02:14;;;;;;;18.77;7.07;;;11.80;89.10;;;;;;4975478;28;20034;-74
2021/12/12 03:04:40;;;;;;;16.45;7.45;;;11.90;89.50;;;;;;4972483;28;20039;-74
2021/12/12 03:07:09;;;;;;;18.67;8.30;;;11.90;89.40;;;;;;4976477;28;20058;-74
2021/12/12 03:09:50;;;;;;;19.90;7.57;;;11.90;89.20;;;;;;4976686;28;20021;-74
2021/12/12 03:12:20;;;;;;;17.83;7.38;;;11.90;89.20;;;;;;4976774;28;20054;-74
2021/12/12 03:14:47;;;;;;;18.55;8.07;;;11.90;89.40;;;;;;4976448;28;20153;-74
2021/12/12 03:17:21;;;;;;;13.55;7.30;;;11.90;89.40;;;;;;4976493;28;20038;-74
2021/12/12 03:19:49;;;;;;;13.77;6.38;;;11.90;89.40;;;;;;4976533;28;20084;-74
2021/12/12 03:22:15;;;;;;;21.25;7.57;;;11.90;89.40;;;;;;4975251;28;20042;-73
2021/12/12 03:24:41;;;;;;;16.50;6.88;;;11.90;89.50;;;;;;4976388;28;20588;-74
2021/12/12 03:27:09;;;;;;;16.55;7.43;;;11.90;89.50;;;;;;4979925;28;20051;-73
2021/12/12 03:29:37;;;;;;;18.65;7.60;;;11.90;89.60;;;;;;4976082;28;20026;-73
2021/12/12 03:32:09;;;;;;;13.90;6.53;;;11.90;89.60;;;;;;4976271;28;20069;-73
2021/12/12 03:34:45;;;;;;;17.20;6.93;;;11.90;89.60;;;;;;4980533;28;20078;-74
2021/12/12 03:37:14;;;;;;;20.70;7.05;;;11.90;89.60;;;;;;4976253;28;20042;-74
2021/12/12 03:39:42;;;;;;;18.25;6.15;;;12.00;89.60;;;;;;4976008;28;20027;-74
2021/12/12 03:42:15;;;;;;;19.83;6.75;;;12.00;89.60;;;;;;4976096;28;20404;-74
2021/12/12 03:44:41;;;;;;;18.88;7.13;;;12.00;89.40;;;;;;4976352;28;20043;-74
2021/12/12 03:47:14;;;;;;;16.65;7.65;;;12.00;89.30;;;;;;4975815;28;20392;-74
2021/12/12 03:49:39;;;;;;;21.25;7.93;;;12.00;89.50;;;;;;4974311;28;20441;-74
2021/12/12 03:52:10;;;;;;;19.98;7.10;;;12.00;89.50;;;;;;4976039;28;20034;-74
2021/12/12 03:54:37;;;;;;;21.15;7.75;;;12.00;89.60;;;;;;4974516;28;20536;-73
2021/12/12 03:57:04;;;;;;;19.02;8.40;;;12.10;89.70;;;;;;4975703;28;20039;-74
2021/12/12 03:59:30;;;;;;;19.15;7.63;;;12.00;89.60;;;;;;4975782;28;20075;-74
2021/12/12 04:01:57;;;;;;;22.05;7.53;;;12.00;89.60;;;;;;4975898;28;20097;-74
2021/12/12 04:04:31;;;;;;;19.52;7.90;;;12.10;89.70;;;;;;4975749;28;20027;-74
2021/12/12 04:06:57;;;;;;;18.48;7.30;;;12.00;89.70;;;;;;4975743;28;20103;-73
2021/12/12 04:09:24;;;;;;;18.98;7.18;;;12.10;89.60;;;;;;4975715;28;20027;-73
2021/12/12 04:11:57;;;;;;;14.18;6.72;;;12.10;89.80;;;;;;4974547;28;20022;-74
2021/12/12 04:14:24;;;;;;;14.75;6.53;;;12.10;89.70;;;;;;4975581;28;20034;-73
2021/12/12 04:16:57;;;;;;;21.85;7.13;;;12.10;89.90;;;;;;4975891;28;20461;-74
2021/12/12 04:19:23;;;;;;;13.80;7.00;;;12.20;89.70;;;;;;4975681;28;20031;-74
2021/12/12 04:21:49;;;;;;;14.15;6.93;;;12.20;89.70;;;;;;4975694;28;20378;-74
2021/12/12 04:24:24;;;;;;;16.45;8.00;;;12.20;89.50;;;;;;4974199;28;20035;-74
2021/12/12 04:26:51;;;;;;;19.40;6.43;;;12.10;89.50;;;;;;4975550;28;20197;-74
2021/12/12 04:29:22;;;;;;;15.25;6.88;;;12.20;89.60;;;;;;4975306;28;20090;-74
2021/12/12 04:31:55;;;;;;;16.48;6.60;;;12.20;89.60;;;;;;4975654;28;20026;-74
2021/12/12 04:34:25;;;;;;;14.18;5.38;;;12.20;89.60;;;;;;4979865;28;20101;-73
2021/12/12 04:36:53;;;;;;;14.88;6.00;;;12.20;89.60;;;;;;4987465;28;20038;-74
2021/12/12 04:39:26;;;;;;;14.68;5.30;;;12.10;89.70;;;;;;4975419;28;20085;-74
2021/12/12 04:41:57;;;;;;;13.45;5.20;;;12.20;89.90;;;;;;4975244;28;20097;-74
2021/12/12 04:44:30;;;;;;;16.17;5.28;;;12.20;89.60;;;;;;4990252;28;20031;-74
2021/12/12 04:50:17;;;;;;;14.02;5.38;;;12.20;89.80;;;;;;4975986;28;20042;-74
2021/12/12 04:53:01;;;;;;;14.10;4.90;;;12.20;89.70;;;;;;4973744;28;20026;-74
2021/12/12 04:55:29;;;;;;;14.98;5.13;;;12.20;89.80;;;;;;4973897;28;20026;-74
2021/12/12 04:58:13;;;;;;;15.70;4.75;;;12.30;89.70;;;;;;4974202;28;20118;-74
2021/12/12 05:00:49;;;;;;;17.05;4.95;;;12.20;89.60;;;;;;4973752;28;20066;-74
2021/12/12 05:03:24;;;;;;;12.82;4.63;;;12.30;89.50;;;;;;4975484;28;20114;-74
2021/12/12 05:05:59;;;;;;;14.48;5.32;;;12.30;89.30;;;;;;4974116;28;20031;-74
2021/12/12 05:08:37;;;;;;;14.43;4.40;;;12.30;89.50;;;;;;4975181;28;20030;-74
2021/12/12 05:11:08;;;;;;;17.15;5.13;;;12.30;89.40;;;;;;4975130;28;20485;-74
2021/12/12 05:13:43;;;;;;;14.63;4.78;;;12.30;89.30;;;;;;4975145;28;20082;-74
2021/12/12 05:16:13;;;;;;;11.93;5.10;;;12.20;89.40;;;;;;4977787;28;20118;-74
2021/12/12 05:18:49;;;;;;;17.00;4.65;;;12.20;89.40;;;;;;4979044;28;20027;-74
2021/12/12 05:21:23;;;;;;;10.60;4.18;;;12.20;89.50;;;;;;4978723;28;20030;-74
2021/12/12 05:23:51;;;;;;;11.07;4.20;;;12.30;89.50;;;;;;4978512;28;20054;-74
2021/12/12 05:26:26;;;;;;;13.20;4.15;;;12.30;89.40;;;;;;4978216;28;20050;-74
2021/12/12 05:29:20;;;;;;;16.67;4.93;;;12.20;89.10;;;;;;4978560;28;20092;-74
2021/12/12 05:31:48;;;;;;;15.10;4.68;;;12.20;89.10;;;;;;4971355;28;20501;-74
2021/12/12 05:34:18;;;;;;;12.70;4.53;;;12.10;89.30;;;;;;4981788;28;20069;-74
2021/12/12 05:36:45;;;;;;;10.50;5.17;;;12.00;89.50;;;;;;4990934;28;20046;-74
2021/12/12 05:39:12;;;;;;;10.52;3.80;;;12.00;89.50;;;;;;4978280;28;20281;-74
2021/12/12 05:41:38;;;;;;;17.60;5.43;;;12.00;89.40;;;;;;4978528;28;20670;-74
2021/12/12 05:44:05;;;;;;;13.55;4.00;;;12.00;89.50;;;;;;4976819;28;20497;-74
2021/12/12 05:46:31;;;;;;;13.10;4.60;;;12.00;89.30;;;;;;4976760;28;20512;-74
2021/12/12 05:48:59;;;;;;;12.10;4.22;;;11.90;89.20;;;;;;4978113;28;20046;-74
2021/12/12 05:51:26;;;;;;;10.68;3.88;;;11.90;89.20;;;;;;4978280;28;20031;-74
2021/12/12 05:53:53;;;;;;;18.15;4.28;;;11.80;89.60;;;;;;4978153;28;20098;-74
2021/12/12 05:56:25;;;;;;;12.93;4.57;;;11.80;89.50;;;;;;4978008;28;20027;-74
2021/12/12 05:58:52;;;;;;;12.57;4.53;;;11.80;89.60;;;;;;4977783;28;20046;-74
2021/12/12 06:01:19;;;;;;;16.42;5.15;;;11.80;89.60;;;;;;4976645;28;20031;-74
2021/12/12 06:03:46;;;;;;;11.35;4.07;;;11.80;89.70;;;;;;4977794;28;20613;-74
2021/12/12 06:06:15;;;;;;;11.60;4.20;;;11.80;89.60;;;;;;4977985;28;20105;-74
2021/12/12 06:08:43;;;;;;;14.80;5.03;;;11.80;89.50;;;;;;4977619;28;20034;-74
2021/12/12 06:11:10;;;;;;;12.85;4.63;;;11.90;89.80;;;;;;4977096;28;20015;-74
2021/12/12 06:13:38;;;;;;;14.18;4.28;;;11.90;89.40;;;;;;4977583;28;20023;-74
2021/12/12 06:16:04;;;;;;;16.65;4.97;;;11.90;89.70;;;;;;4977953;28;20023;-74
2021/12/12 06:18:32;;;;;;;12.43;4.60;;;11.90;89.60;;;;;;4977626;28;20074;-74
2021/12/12 06:20:58;;;;;;;17.73;4.65;;;11.90;89.50;;;;;;4977529;28;20477;-73
2021/12/12 06:23:26;;;;;;;12.57;4.43;;;11.90;89.30;;;;;;4977732;28;20370;-74
2021/12/12 06:25:51;;;;;;;13.90;4.80;;;11.90;89.40;;;;;;4975553;28;20085;-74
2021/12/12 06:28:30;;;;;;;11.73;4.50;;;11.90;89.30;;;;;;4977323;28;20046;-74
2021/12/12 06:30:56;;;;;;;14.65;5.22;;;12.00;89.40;;;;;;4977506;28;20030;-74
2021/12/12 06:33:23;;;;;;;14.93;5.30;;;12.00;89.30;;;;;;4977276;28;20059;-73
2021/12/12 06:35:49;;;;;;;13.98;4.75;;;12.00;89.30;;;;;;4979016;28;20023;-74
2021/12/12 06:38:16;;;;;;;9.00;5.63;;;12.00;89.20;;;;;;4977420;28;20109;-74
2021/12/12 06:40:43;;;;;;;15.27;5.40;;;12.00;89.30;;;;;;4975539;28;20069;-74
2021/12/12 06:43:11;;;;;;;14.73;6.30;;;12.00;89.30;;;;;;4977329;28;20049;-74
2021/12/12 06:45:37;;;;;;;15.60;5.18;;;11.90;89.40;;;;;;4977181;28;20109;-74
2021/12/12 06:48:09;;;;;;;10.93;5.80;;;11.90;89.40;;;;;;4976921;28;20550;-74
2021/12/12 06:50:37;;;;;;;12.98;6.03;;;11.90;89.50;;;;;;4976929;28;20035;-74
2021/12/12 06:53:04;;;;;;;10.85;5.10;;;11.80;89.60;;;;;;4977051;28;20364;-74
2021/12/12 06:55:31;;;;;;;15.27;5.45;;;11.80;89.70;;;;;;4982016;28;20053;-74
2021/12/12 06:58:00;;;;;;;13.98;5.53;;;11.80;89.50;;;;;;4985416;28;20077;-74
2021/12/12 07:00:27;;;;;;;14.88;5.25;;;11.80;89.90;;;;;;4974209;28;20022;-74
2021/12/12 07:02:53;;;;;;;9.55;4.97;;;11.80;89.80;;;;;;4974513;28;20054;-74
2021/12/12 07:05:24;;;;;;;16.02;5.15;;;11.90;89.70;;;;;;4974374;28;20034;-74
2021/12/12 07:07:51;;;;;;;13.43;5.00;;;11.90;89.70;;;;;;4977384;28;20054;-74
2021/12/12 07:10:20;;;;;;;14.32;5.00;;;11.90;89.70;;;;;;4988353;28;20025;-74
2021/12/12 07:12:53;;;;;;;15.38;4.30;;;12.00;89.50;;;;;;4996069;28;20072;-75
2021/12/12 07:15:19;;;;;;;12.63;3.92;;;12.00;89.40;;;;;;4977196;28;20069;-72
2021/12/12 07:17:45;;;;;;;11.52;3.83;;;11.90;89.30;;;;;;4978914;28;20105;-73
2021/12/12 07:20:12;;;;;;;11.02;4.07;;;11.90;89.40;;;;;;4978219;28;20035;-72
2021/12/12 07:22:39;;;;;;;14.40;3.17;;;11.90;89.60;;;;;;4977131;28;20034;-73
2021/12/12 07:25:07;;;;;;;9.55;3.83;;;11.90;89.30;;;;;;4980420;28;20022;-73
2021/12/12 07:27:33;;;;;;;13.90;3.95;;;11.90;89.40;;;;;;4980633;28;20133;-72
2021/12/12 07:30:01;;;;;;;10.88;3.80;;;11.90;89.40;;;;;;4976227;28;20047;-76
2021/12/12 07:32:28;;;;;;;9.85;3.67;;;11.90;89.80;;;;;;4974599;28;20027;-75
2021/12/12 07:34:56;;;;;;;6.93;3.10;;;11.90;89.30;;;;;;4980086;28;20046;-76
2021/12/12 07:37:22;;;;;;;8.02;3.45;;;11.90;89.60;;;;;;4979831;28;20026;-79
2021/12/12 07:39:50;;;;;;;9.02;3.80;;;11.90;89.60;;;;;;4994893;28;20023;-76
2021/12/12 15:58:38;;;;;;;7.85;4.10;;;11.60;89.20;;;;;;5067032;28;20543;-77
2021/12/12 16:01:17;;;;;;;8.63;4.15;;;11.60;89.30;;;;;;5049660;28;20036;-77
2021/12/12 16:03:47;;;;;;;12.25;5.30;;;11.80;88.80;;;;;;5042195;28;20038;-80
2021/12/12 16:06:39;;;;;;;12.50;5.40;;;12.10;88.30;;;;;;5052984;28;20372;-83
2021/12/12 16:09:12;;;;;;;7.88;5.00;;;12.20;87.10;;;;;;5038942;28;20483;-83
2021/12/12 16:11:39;;;;;;;10.25;5.35;;;12.40;86.80;;;;;;5041655;28;20024;-83
2021/12/12 16:14:10;;;;;;;8.75;4.43;;;12.50;86.40;;;;;;5043264;28;20047;-83
2021/12/12 16:16:43;;;;;;;6.20;3.60;;;12.60;85.70;;;;;;5045979;28;20017;-84
2021/12/12 16:19:13;;;;;;;9.18;3.50;;;12.60;85.90;;;;;;5076795;28;20143;-84
2021/12/12 16:21:51;;;;;;;6.00;3.15;;;12.70;85.40;;;;;;5033759;28;20025;-83
2021/12/12 16:24:27;;;;;;;7.63;3.25;;;12.70;84.90;;;;;;5044132;28;20048;-83
2021/12/12 16:26:53;;;;;;;10.77;3.47;;;12.70;84.40;;;;;;5042805;28;20061;-91
2021/12/12 16:29:22;;;;;;;7.28;3.30;;;12.70;84.90;;;;;;5042298;28;20044;-81
2021/12/12 16:31:54;;;;;;;8.98;3.58;;;12.70;84.70;;;;;;5029941;28;20053;-87
2021/12/12 16:34:24;;;;;;;8.25;3.78;;;12.70;84.80;;;;;;5037509;28;20106;-88
2021/12/12 16:36:58;;;;;;;8.13;3.72;;;12.60;84.30;;;;;;5062917;28;20054;-86
2021/12/12 16:39:28;;;;;;;8.30;3.92;;;12.60;84.60;;;;;;5041337;28;20061;-86
2021/12/12 16:42:10;;;;;;;9.50;3.80;;;12.60;85.20;;;;;;5031556;28;20140;-86
2021/12/12 16:44:41;;;;;;;7.53;3.20;;;12.60;84.30;;;;;;5041657;28;20040;-86
2021/12/12 16:47:19;;;;;;;11.35;3.70;;;12.60;84.10;;;;;;5030556;28;20022;-86
2021/12/12 16:49:48;;;;;;;8.05;4.68;;;12.60;83.90;;;;;;5041996;28;20036;-88
2021/12/12 16:52:17;;;;;;;9.27;3.60;;;12.50;84.30;;;;;;5051650;28;20753;-86
2021/12/12 16:54:53;;;;;;;9.07;3.60;;;12.60;84.00;;;;;;5048965;28;20537;-86
2021/12/12 16:57:27;;;;;;;8.23;3.65;;;12.60;84.90;;;;;;5034357;28;20037;-85
2021/12/12 17:00:11;;;;;;;11.02;4.30;;;12.50;83.30;;;;;;5051670;28;20021;-87
2021/12/12 17:02:42;;;;;;;6.43;4.55;;;12.60;83.70;;;;;;5041025;28;20105;-87
2021/12/12 17:05:14;;;;;;;6.88;4.90;;;12.60;83.40;;;;;;5030290;28;20109;-85
2021/12/12 17:07:50;;;;;;;11.57;5.97;;;12.60;82.80;;;;;;5061944;28;20471;-86
2021/12/12 17:10:19;;;;;;;10.38;6.18;;;12.50;83.00;;;;;;5017552;28;20030;-87
2021/12/12 17:12:52;;;;;;;8.65;6.25;;;12.50;83.80;;;;;;5019637;28;20500;-86
2021/12/12 17:15:38;;;;;;;14.60;6.32;;;12.50;83.30;;;;;;5035133;28;20029;-86
2021/12/12 17:18:14;;;;;;;8.35;4.65;;;12.60;82.90;;;;;;5038813;28;20029;-86
2021/12/12 17:20:58;;;;;;;10.27;4.63;;;12.60;83.10;;;;;;5018804;28;20025;-86
2021/12/12 17:23:30;;;;;;;5.35;3.17;;;12.70;83.90;;;;;;5027722;28;20053;-81
2021/12/12 17:25:56;;;;;;;4.88;3.05;;;12.70;83.70;;;;;;5024377;28;20113;-86
2021/12/12 17:28:25;;;;;;;7.57;3.35;;;12.80;83.70;;;;;;5035008;28;20037;-78
2021/12/12 17:30:55;;;;;;;8.52;3.30;;;12.70;82.90;;;;;;5032269;28;20039;-83
2021/12/12 17:33:27;;;;;;;6.87;3.23;;;12.70;83.00;;;;;;5023288;28;20056;-82
2021/12/12 17:35:54;;;;;;;11.63;3.90;;;12.60;81.20;;;;;;5024724;28;20037;-85
2021/12/12 17:38:45;;;;;;;10.02;4.10;;;12.50;81.10;;;;;;5028003;28;20026;-84
2021/12/12 17:41:19;;;;;;;12.27;6.03;;;12.40;81.60;;;;;;5033509;28;20014;-85
2021/12/12 17:43:53;;;;;;;22.25;11.40;;;12.40;82.30;;;;;;5034042;28;20044;-79
2021/12/12 17:46:47;;;;;;;22.92;14.40;;;12.40;82.30;;;;;;5062444;28;20042;-83
2021/12/12 17:49:12;;;;;;;11.93;6.93;;;12.40;82.00;;;;;;5057510;28;20018;-78
2021/12/12 17:52:09;;;;;;;6.93;5.32;;;12.40;82.20;;;;;;5030923;28;20047;-78
2021/12/12 17:55:11;;;;;;;29.55;14.30;;;12.40;82.20;;;;;;5023481;28;20074;-78
2021/12/12 17:57:59;;;;;;;16.98;10.30;;;12.40;81.90;;;;;;5063291;28;20049;-82
2021/12/12 18:00:37;;;;;;;7.82;4.72;;;12.30;81.70;;;;;;5024432;28;20022;-81
2021/12/12 18:03:13;;;;;;;20.27;10.38;;;12.30;80.90;;;;;;5025913;28;20017;-81
2021/12/12 18:05:43;;;;;;;36.20;16.63;;;12.30;81.40;;;;;;5063764;28;20029;-82
2021/12/12 18:08:24;;;;;;;22.20;11.20;;;12.30;81.40;;;;;;5028593;28;20120;-82
2021/12/12 18:10:56;;;;;;;11.05;5.13;;;12.40;81.60;;;;;;5015288;28;20037;-82
2021/12/12 18:13:24;;;;;;;9.13;4.97;;;12.40;81.50;;;;;;5022724;28;20038;-82
2021/12/12 18:16:08;;;;;;;7.45;3.78;;;12.30;79.20;;;;;;5016813;28;20816;-82
2021/12/12 18:18:43;;;;;;;6.00;3.22;;;12.30;78.90;;;;;;5026359;28;20033;-82
2021/12/12 18:21:15;;;;;;;9.15;3.97;;;12.30;79.20;;;;;;5017088;28;20028;-80
2021/12/12 18:23:51;;;;;;;17.45;4.93;;;12.30;79.10;;;;;;5022424;28;20036;-77
2021/12/12 18:26:39;;;;;;;11.00;5.07;;;12.30;80.30;;;;;;5030954;28;20045;-79
2021/12/12 18:29:31;;;;;;;9.90;4.13;;;12.30;80.20;;;;;;5018730;28;20030;-77
2021/12/12 18:31:59;;;;;;;11.05;4.97;;;12.40;79.70;;;;;;5014663;28;20113;-75
2021/12/12 18:34:45;;;;;;;9.02;5.40;;;12.30;79.30;;;;;;5035267;28;20070;-74
2021/12/12 18:37:16;;;;;;;9.73;5.20;;;12.30;79.00;;;;;;5032195;28;20415;-81
2021/12/12 18:39:54;;;;;;;7.88;3.92;;;12.30;78.80;;;;;;5014551;28;20488;-75
2021/12/12 18:42:31;;;;;;;9.73;4.65;;;12.30;78.80;;;;;;5025484;28;20716;-76
2021/12/12 18:45:06;;;;;;;10.75;4.60;;;12.30;79.40;;;;;;5026115;28;20037;-77
2021/12/12 18:47:36;;;;;;;11.63;4.13;;;12.20;79.60;;;;;;5029086;28;20018;-77
2021/12/12 18:50:09;;;;;;;9.05;4.57;;;12.20;79.80;;;;;;5013788;28;20443;-78
2021/12/12 18:52:36;;;;;;;10.98;4.43;;;12.20;79.20;;;;;;5016034;28;20053;-77
2021/12/12 18:55:08;;;;;;;8.57;4.43;;;12.20;79.30;;;;;;5012747;28;20078;-80
2021/12/12 18:57:42;;;;;;;11.57;5.30;;;12.20;79.70;;;;;;5060673;28;20765;-78
2021/12/12 19:00:23;;;;;;;11.60;5.82;;;12.20;79.50;;;;;;5025085;28;20373;-79
2021/12/12 19:03:01;;;;;;;9.07;3.83;;;12.20;79.50;;;;;;5022035;28;20018;-78
2021/12/12 19:05:30;;;;;;;10.27;4.90;;;12.20;80.40;;;;;;5020086;28;20029;-80
2021/12/12 19:08:16;;;;;;;13.80;6.80;;;12.30;80.40;;;;;;5018034;28;20029;-78
2021/12/12 19:10:53;;;;;;;25.35;12.27;;;12.30;80.30;;;;;;5022058;28;20055;-76
2021/12/12 19:13:24;;;;;;;34.35;15.43;;;12.30;80.60;;;;;;5020766;28;20108;-75
2021/12/12 19:15:52;;;;;;;33.40;16.50;;;12.30;80.80;;;;;;5029504;28;20108;-80
2021/12/12 19:18:22;;;;;;;24.95;12.40;;;12.20;81.20;;;;;;5016519;28;20096;-78
2021/12/12 19:20:54;;;;;;;12.15;7.20;;;12.30;81.80;;;;;;5026582;28;20037;-77
2021/12/12 19:23:36;;;;;;;19.15;11.15;;;12.30;81.40;;;;;;5030221;28;20041;-79
2021/12/12 19:26:05;;;;;;;13.60;6.57;;;12.30;81.70;;;;;;5029891;28;20494;-79
2021/12/12 19:28:36;;;;;;;10.57;4.67;;;12.30;81.90;;;;;;5038168;28;20036;-83
2021/12/12 19:31:06;;;;;;;13.48;5.05;;;12.40;82.20;;;;;;5039280;28;20279;-82
2021/12/12 19:33:33;;;;;;;12.00;5.53;;;12.30;82.00;;;;;;5047660;28;20027;-80
2021/12/12 19:36:00;;;;;;;10.93;4.47;;;12.30;82.40;;;;;;5045427;28;20083;-77
2021/12/12 19:38:32;;;;;;;9.77;4.68;;;12.30;82.20;;;;;;5044704;28;20533;-80
2021/12/12 19:41:19;;;;;;;11.88;4.75;;;12.30;82.20;;;;;;5039271;28;20043;-77
2021/12/12 19:43:53;;;;;;;11.55;5.97;;;12.20;82.20;;;;;;5043481;28;20120;-76
2021/12/12 19:46:20;;;;;;;9.90;5.10;;;12.20;82.10;;;;;;5049769;28;20566;-75
2021/12/12 19:48:52;;;;;;;8.45;5.22;;;12.30;82.40;;;;;;5040755;28;20091;-77
2021/12/12 19:51:30;;;;;;;15.15;5.90;;;12.30;82.70;;;;;;5035353;28;20017;-75
2021/12/12 19:54:06;;;;;;;6.78;4.63;;;12.20;82.20;;;;;;5037325;28;20022;-77
2021/12/12 19:56:36;;;;;;;11.68;5.05;;;12.20;82.40;;;;;;5037353;28;21916;-79
2021/12/12 19:59:03;;;;;;;8.35;4.72;;;12.20;82.30;;;;;;5035094;28;20507;-76
2021/12/12 20:01:33;;;;;;;9.30;5.07;;;12.20;82.30;;;;;;5034557;28;20896;-77
2021/12/12 20:04:09;;;;;;;12.93;4.93;;;12.20;82.70;;;;;;5038098;28;20053;-77
2021/12/12 20:06:48;;;;;;;11.30;4.63;;;12.20;82.70;;;;;;5045157;28;20116;-75
2021/12/12 20:09:15;;;;;;;10.25;5.20;;;12.20;82.80;;;;;;5046652;28;20021;-76
2021/12/12 20:12:05;;;;;;;10.85;5.45;;;12.30;82.70;;;;;;5041259;28;20578;-75
2021/12/12 20:14:36;;;;;;;14.27;6.63;;;12.20;82.60;;;;;;5043548;28;20114;-75
2021/12/12 20:17:25;;;;;;;11.38;5.43;;;12.20;82.60;;;;;;5031815;28;20033;-76
2021/12/12 20:19:59;;;;;;;8.00;5.53;;;12.20;82.70;;;;;;5031062;28;20067;-77
2021/12/12 20:22:29;;;;;;;12.32;5.85;;;12.20;82.30;;;;;;5034443;28;20106;-75
2021/12/12 20:25:03;;;;;;;10.73;5.65;;;12.20;82.60;;;;;;5040408;28;20132;-76
2021/12/12 20:27:41;;;;;;;7.75;4.30;;;12.10;82.30;;;;;;5032830;28;20098;-76
2021/12/12 20:30:24;;;;;;;8.93;4.18;;;12.10;82.30;;;;;;5037706;28;20020;-76
2021/12/12 20:32:54;;;;;;;12.30;4.97;;;12.10;82.30;;;;;;5037175;28;20495;-76
2021/12/12 20:35:32;;;;;;;10.50;4.90;;;12.10;82.30;;;;;;5050457;28;20497;-76
2021/12/12 20:38:03;;;;;;;8.30;4.35;;;12.10;82.30;;;;;;5035094;28;20623;-76
2021/12/12 20:40:34;;;;;;;7.00;4.82;;;12.10;82.00;;;;;;5038985;28;20571;-76
2021/12/12 20:43:00;;;;;;;10.82;4.97;;;12.10;82.30;;;;;;5036781;28;20487;-76
2021/12/12 20:45:36;;;;;;;10.25;4.88;;;12.10;82.20;;;;;;5046119;28;20112;-75
2021/12/12 20:48:19;;;;;;;9.55;4.80;;;12.20;81.70;;;;;;5051864;28;20025;-75
2021/12/12 20:50:57;;;;;;;7.38;5.25;;;12.10;82.00;;;;;;5047765;28;20281;-76
2021/12/12 20:53:26;;;;;;;8.43;4.75;;;12.20;81.90;;;;;;5043348;28;20522;-76
2021/12/12 20:56:06;;;;;;;10.10;4.95;;;12.10;81.60;;;;;;5041896;28;20037;-76
2021/12/12 20:58:37;;;;;;;12.50;5.95;;;12.20;81.90;;;;;;5045830;28;20076;-75
2021/12/12 21:01:12;;;;;;;6.80;4.32;;;12.20;81.70;;;;;;5039078;28;20086;-75
2021/12/12 21:03:50;;;;;;;6.07;4.45;;;12.20;81.70;;;;;;5043193;28;20254;-75
2021/12/12 21:06:38;;;;;;;6.13;4.05;;;12.20;81.50;;;;;;5046448;28;20112;-76
2021/12/12 21:09:11;;;;;;;10.13;4.10;;;12.10;82.00;;;;;;5045269;28;20026;-76
2021/12/12 21:11:45;;;;;;;10.00;4.78;;;12.10;82.50;;;;;;5048576;28;20035;-76
2021/12/12 21:14:15;;;;;;;10.35;5.10;;;12.00;82.80;;;;;;5048635;28;20412;-75
2021/12/12 21:16:41;;;;;;;8.85;4.15;;;12.00;83.30;;;;;;5048778;28;20072;-76
2021/12/12 21:19:13;;;;;;;13.20;5.10;;;12.00;83.80;;;;;;5050991;28;20049;-75
2021/12/12 21:21:42;;;;;;;8.23;4.13;;;12.00;83.70;;;;;;5047299;28;20020;-75
2021/12/12 21:24:15;;;;;;;6.83;4.53;;;12.00;83.80;;;;;;5037332;28;20028;-75
2021/12/12 21:27:04;;;;;;;11.07;5.22;;;12.10;83.80;;;;;;5069453;28;20669;-75
2021/12/12 21:29:34;;;;;;;8.73;5.18;;;12.00;83.80;;;;;;5049355;28;20029;-75
2021/12/12 21:32:03;;;;;;;8.15;5.50;;;12.10;83.90;;;;;;5046536;28;20033;-75
2021/12/12 21:34:35;;;;;;;9.30;4.85;;;12.00;83.80;;;;;;5049741;28;20108;-75
2021/12/12 21:37:25;;;;;;;11.25;5.72;;;12.00;84.00;;;;;;5045140;28;20035;-75